Mecca, Saudi Arabia
Current Conditions -  °F | °C
As of 10:00 AM on Sunday 23 Nov 2014 (Local Time) from OEMK Reporting Station
Scattered Clouds Scattered Clouds  
Wind Chill: 82°   Ceiling: Unl
Heat Index: 86°   Visibility: 6mi
Dew Point: 70°   Wind: 0mph
Humidity: 66%   Direction: NA
Pressure: 29.94"   Gusts: NA
Location:  21.43°N, 39.82°E
Report Text: OEMK 230700Z 00000KT 9999 SCT040 28/21 Q1014
Loading
Personal Weather Stations






























Interactive Weather Map New forecast layout! Learn more

10-Day Weather Forecast

Advertisements
Track Severe Weather on mobile